sensor_id;sensor_type;location;lat;lon;timestamp;pressure;altitude;pressure_sealevel;temperature;humidity
32851;BME280;19202;48.992;8.390;2022-09-29T00:01:02;98885.72;;;11.61;79.46
32851;BME280;19202;48.992;8.390;2022-09-29T00:06:40;98888.38;;;11.61;79.57
32851;BME280;19202;48.992;8.390;2022-09-29T00:12:18;98886.66;;;11.60;79.20
32851;BME280;19202;48.992;8.390;2022-09-29T00:17:56;98879.66;;;11.59;79.17
32851;BME280;19202;48.992;8.390;2022-09-29T00:23:34;98877.94;;;11.58;78.93
32851;BME280;19202;48.992;8.390;2022-09-29T00:29:12;98873.63;;;11.57;78.73
32851;BME280;19202;48.992;8.390;2022-09-29T00:34:50;98872.09;;;11.53;78.88
32851;BME280;19202;48.992;8.390;2022-09-29T00:40:28;98868.69;;;11.51;78.57
32851;BME280;19202;48.992;8.390;2022-09-29T00:46:07;98865.09;;;11.52;78.98
32851;BME280;19202;48.992;8.390;2022-09-29T00:51:51;98855.53;;;11.49;79.43
32851;BME280;19202;48.992;8.390;2022-09-29T00:57:42;98856.97;;;11.41;79.67
32851;BME280;19202;48.992;8.390;2022-09-29T01:03:23;98851.31;;;11.47;79.29
32851;BME280;19202;48.992;8.390;2022-09-29T01:09:08;98858.00;;;11.52;79.26
32851;BME280;19202;48.992;8.390;2022-09-29T01:14:47;98861.31;;;11.56;79.29
32851;BME280;19202;48.992;8.390;2022-09-29T01:20:26;98867.19;;;11.61;78.94
32851;BME280;19202;48.992;8.390;2022-09-29T01:32:32;98862.53;;;11.50;79.71
32851;BME280;19202;48.992;8.390;2022-09-29T01:44:26;98865.69;;;11.43;79.90
32851;BME280;19202;48.992;8.390;2022-09-29T01:50:11;98869.47;;;11.39;79.59
32851;BME280;19202;48.992;8.390;2022-09-29T01:55:52;98869.16;;;11.43;79.98
32851;BME280;19202;48.992;8.390;2022-09-29T02:01:35;98868.88;;;11.48;79.88
32851;BME280;19202;48.992;8.390;2022-09-29T02:07:40;98882.22;;;11.46;80.41
32851;BME280;19202;48.992;8.390;2022-09-29T02:13:17;98872.88;;;11.41;80.51
32851;BME280;19202;48.992;8.390;2022-09-29T02:19:02;98873.91;;;11.38;80.65
32851;BME280;19202;48.992;8.390;2022-09-29T02:24:41;98876.66;;;11.37;80.77
32851;BME280;19202;48.992;8.390;2022-09-29T02:30:20;98873.25;;;11.35;81.07
32851;BME280;19202;48.992;8.390;2022-09-29T02:36:07;98874.19;;;11.34;81.01
32851;BME280;19202;48.992;8.390;2022-09-29T02:41:55;98873.63;;;11.29;81.91
32851;BME280;19202;48.992;8.390;2022-09-29T02:47:57;98867.97;;;11.21;82.12
32851;BME280;19202;48.992;8.390;2022-09-29T02:59:43;98865.59;;;11.30;81.35
32851;BME280;19202;48.992;8.390;2022-09-29T03:05:22;98862.09;;;11.30;81.75
32851;BME280;19202;48.992;8.390;2022-09-29T03:11:01;98859.25;;;11.33;81.55
32851;BME280;19202;48.992;8.390;2022-09-29T03:16:39;98856.41;;;11.36;81.28
32851;BME280;19202;48.992;8.390;2022-09-29T03:22:17;98851.69;;;11.41;80.53
32851;BME280;19202;48.992;8.390;2022-09-29T03:27:55;98853.38;;;11.42;80.37
32851;BME280;19202;48.992;8.390;2022-09-29T03:33:37;98845.31;;;11.43;80.49
32851;BME280;19202;48.992;8.390;2022-09-29T03:39:15;98847.03;;;11.44;80.38
32851;BME280;19202;48.992;8.390;2022-09-29T03:44:53;98844.50;;;11.43;80.46
32851;BME280;19202;48.992;8.390;2022-09-29T03:50:31;98842.69;;;11.43;80.75
32851;BME280;19202;48.992;8.390;2022-09-29T03:56:09;98848.06;;;11.42;80.30
32851;BME280;19202;48.992;8.390;2022-09-29T04:01:47;98843.75;;;11.41;80.41
32851;BME280;19202;48.992;8.390;2022-09-29T04:07:25;98851.00;;;11.37;80.38
32851;BME280;19202;48.992;8.390;2022-09-29T04:13:04;98853.84;;;11.34;81.50
32851;BME280;19202;48.992;8.390;2022-09-29T04:18:42;98859.81;;;11.38;81.40
32851;BME280;19202;48.992;8.390;2022-09-29T04:24:20;98863.31;;;11.38;80.74
32851;BME280;19202;48.992;8.390;2022-09-29T04:29:58;98863.22;;;11.40;80.70
32851;BME280;19202;48.992;8.390;2022-09-29T04:35:36;98867.56;;;11.41;81.09
32851;BME280;19202;48.992;8.390;2022-09-29T04:41:14;98869.25;;;11.42;80.92
32851;BME280;19202;48.992;8.390;2022-09-29T04:46:52;98880.59;;;11.44;81.02
32851;BME280;19202;48.992;8.390;2022-09-29T04:52:30;98870.28;;;11.39;81.22
32851;BME280;19202;48.992;8.390;2022-09-29T04:58:08;98880.22;;;11.36;81.11
32851;BME280;19202;48.992;8.390;2022-09-29T05:03:45;98884.66;;;11.35;81.12
32851;BME280;19202;48.992;8.390;2022-09-29T05:09:23;98889.13;;;11.35;80.96
32851;BME280;19202;48.992;8.390;2022-09-29T05:15:01;98893.69;;;11.33;80.89
32851;BME280;19202;48.992;8.390;2022-09-29T05:20:41;98902.38;;;11.35;80.93
32851;BME280;19202;48.992;8.390;2022-09-29T05:26:19;98893.75;;;11.31;81.09
32851;BME280;19202;48.992;8.390;2022-09-29T05:31:57;98902.81;;;11.27;81.13
32851;BME280;19202;48.992;8.390;2022-09-29T05:37:35;98899.34;;;11.27;81.18
32851;BME280;19202;48.992;8.390;2022-09-29T05:43:13;98916.91;;;11.28;81.23
32851;BME280;19202;48.992;8.390;2022-09-29T05:48:50;98905.41;;;11.29;81.57
32851;BME280;19202;48.992;8.390;2022-09-29T05:54:28;98909.84;;;11.28;81.75
32851;BME280;19202;48.992;8.390;2022-09-29T06:00:07;98907.28;;;11.27;82.43
32851;BME280;19202;48.992;8.390;2022-09-29T06:05:44;98907.19;;;11.14;83.49
32851;BME280;19202;48.992;8.390;2022-09-29T06:11:25;98910.38;;;11.19;83.76
32851;BME280;19202;48.992;8.390;2022-09-29T06:17:04;98907.47;;;11.24;84.19
32851;BME280;19202;48.992;8.390;2022-09-29T06:22:42;98899.03;;;11.31;83.36
32851;BME280;19202;48.992;8.390;2022-09-29T06:28:19;98910.69;;;11.43;83.19
32851;BME280;19202;48.992;8.390;2022-09-29T06:33:59;98910.75;;;11.55;83.05
32851;BME280;19202;48.992;8.390;2022-09-29T06:39:37;98916.00;;;11.71;83.01
32851;BME280;19202;48.992;8.390;2022-09-29T06:45:15;98919.56;;;11.84;83.14
32851;BME280;19202;48.992;8.390;2022-09-29T06:50:55;98919.09;;;11.92;83.47
32851;BME280;19202;48.992;8.390;2022-09-29T06:56:33;98932.16;;;11.95;83.54
32851;BME280;19202;48.992;8.390;2022-09-29T07:02:11;98937.72;;;12.04;83.43
32851;BME280;19202;48.992;8.390;2022-09-29T07:07:49;98934.88;;;12.07;83.54
32851;BME280;19202;48.992;8.390;2022-09-29T07:13:27;98934.09;;;12.19;83.35
32851;BME280;19202;48.992;8.390;2022-09-29T07:19:05;98939.16;;;12.36;83.07
32851;BME280;19202;48.992;8.390;2022-09-29T07:24:43;98930.72;;;12.56;82.87
32851;BME280;19202;48.992;8.390;2022-09-29T07:30:21;98924.84;;;12.78;82.92
32851;BME280;19202;48.992;8.390;2022-09-29T07:35:59;98936.94;;;13.09;82.73
32851;BME280;19202;48.992;8.390;2022-09-29T07:41:37;98944.38;;;13.29;82.01
32851;BME280;19202;48.992;8.390;2022-09-29T07:47:15;98939.28;;;13.38;82.07
32851;BME280;19202;48.992;8.390;2022-09-29T07:52:53;98942.81;;;13.51;81.19
32851;BME280;19202;48.992;8.390;2022-09-29T07:58:32;98949.72;;;13.54;80.86
32851;BME280;19202;48.992;8.390;2022-09-29T08:04:11;98949.38;;;13.71;81.38
32851;BME280;19202;48.992;8.390;2022-09-29T08:09:49;98940.03;;;14.14;80.18
32851;BME280;19202;48.992;8.390;2022-09-29T08:15:27;98953.56;;;14.48;79.24
32851;BME280;19202;48.992;8.390;2022-09-29T08:21:05;98954.28;;;14.73;78.06
32851;BME280;19202;48.992;8.390;2022-09-29T08:26:43;98962.31;;;15.08;77.49
32851;BME280;19202;48.992;8.390;2022-09-29T08:32:21;98958.56;;;15.45;74.85
32851;BME280;19202;48.992;8.390;2022-09-29T08:37:59;98961.28;;;15.89;75.33
32851;BME280;19202;48.992;8.390;2022-09-29T08:43:39;98975.88;;;16.39;71.46
32851;BME280;19202;48.992;8.390;2022-09-29T08:49:24;98987.88;;;16.67;71.46
32851;BME280;19202;48.992;8.390;2022-09-29T09:01:15;98993.13;;;17.52;68.11
32851;BME280;19202;48.992;8.390;2022-09-29T09:18:54;98998.63;;;19.48;58.83
32851;BME280;19202;48.992;8.390;2022-09-29T09:24:46;98999.72;;;19.65;60.76
32851;BME280;19202;48.992;8.390;2022-09-29T09:30:28;99003.97;;;19.67;60.58
32851;BME280;19202;48.992;8.390;2022-09-29T09:36:18;98998.47;;;19.69;58.13
32851;BME280;19202;48.992;8.390;2022-09-29T09:42:00;99008.09;;;19.43;58.78
32851;BME280;19202;48.992;8.390;2022-09-29T09:47:46;98995.66;;;19.22;57.62
32851;BME280;19202;48.992;8.390;2022-09-29T09:53:31;98990.16;;;18.95;60.06
32851;BME280;19202;48.992;8.390;2022-09-29T10:05:02;99011.78;;;18.54;62.34
32851;BME280;19202;48.992;8.390;2022-09-29T10:10:41;99007.16;;;18.26;62.45
32851;BME280;19202;48.992;8.390;2022-09-29T10:16:24;99007.38;;;18.13;63.27
32851;BME280;19202;48.992;8.390;2022-09-29T10:22:13;99009.59;;;17.99;63.85
32851;BME280;19202;48.992;8.390;2022-09-29T10:27:53;99015.28;;;18.15;63.58
32851;BME280;19202;48.992;8.390;2022-09-29T10:33:33;99001.75;;;18.16;63.36
32851;BME280;19202;48.992;8.390;2022-09-29T10:39:31;99001.09;;;18.24;63.15
32851;BME280;19202;48.992;8.390;2022-09-29T10:50:57;98995.31;;;19.83;57.83
32851;BME280;19202;48.992;8.390;2022-09-29T10:56:45;98998.41;;;20.34;56.32
32851;BME280;19202;48.992;8.390;2022-09-29T11:02:36;98984.34;;;20.94;55.68
32851;BME280;19202;48.992;8.390;2022-09-29T11:08:16;98982.97;;;21.08;56.06
32851;BME280;19202;48.992;8.390;2022-09-29T11:13:57;98996.59;;;20.97;54.11
32851;BME280;19202;48.992;8.390;2022-09-29T11:19:35;98996.69;;;20.87;53.10
32851;BME280;19202;48.992;8.390;2022-09-29T11:25:44;99002.69;;;20.54;53.88
32851;BME280;19202;48.992;8.390;2022-09-29T11:31:38;99005.09;;;20.30;55.08
32851;BME280;19202;48.992;8.390;2022-09-29T11:37:39;99016.63;;;19.94;54.77
32851;BME280;19202;48.992;8.390;2022-09-29T11:43:37;99006.38;;;19.61;56.26
32851;BME280;19202;48.992;8.390;2022-09-29T11:49:29;99012.34;;;19.35;57.46
32851;BME280;19202;48.992;8.390;2022-09-29T11:55:52;99014.28;;;19.14;56.50
32851;BME280;19202;48.992;8.390;2022-09-29T12:07:42;99006.81;;;18.99;58.38
32851;BME280;19202;48.992;8.390;2022-09-29T12:19:37;99016.91;;;18.76;59.28
32851;BME280;19202;48.992;8.390;2022-09-29T12:25:21;99020.03;;;18.81;59.45
32851;BME280;19202;48.992;8.390;2022-09-29T12:31:32;99009.31;;;18.81;59.45
32851;BME280;19202;48.992;8.390;2022-09-29T12:37:26;99003.81;;;18.83;59.26
32851;BME280;19202;48.992;8.390;2022-09-29T12:49:42;99003.41;;;18.87;58.38
32851;BME280;19202;48.992;8.390;2022-09-29T13:01:28;99003.41;;;18.87;57.24
32851;BME280;19202;48.992;8.390;2022-09-29T13:25:34;99023.13;;;18.67;57.31
32851;BME280;19202;48.992;8.390;2022-09-29T13:31:20;99025.34;;;18.62;58.36
32851;BME280;19202;48.992;8.390;2022-09-29T13:37:11;99027.06;;;18.63;58.06
32851;BME280;19202;48.992;8.390;2022-09-29T13:42:54;99029.03;;;18.61;58.22
32851;BME280;19202;48.992;8.390;2022-09-29T13:48:34;99031.69;;;18.61;58.23
32851;BME280;19202;48.992;8.390;2022-09-29T14:05:43;99038.88;;;18.51;56.97
32851;BME280;19202;48.992;8.390;2022-09-29T14:17:18;99043.03;;;18.14;55.02
32851;BME280;19202;48.992;8.390;2022-09-29T14:23:06;99044.94;;;18.02;54.81
32851;BME280;19202;48.992;8.390;2022-09-29T14:28:44;99043.84;;;18.05;55.36
32851;BME280;19202;48.992;8.390;2022-09-29T14:34:27;99043.75;;;18.16;54.79
32851;BME280;19202;48.992;8.390;2022-09-29T14:40:07;99062.13;;;18.30;54.91
32851;BME280;19202;48.992;8.390;2022-09-29T14:52:34;99063.16;;;18.69;53.74
32851;BME280;19202;48.992;8.390;2022-09-29T15:04:39;99071.75;;;18.72;52.97
32851;BME280;19202;48.992;8.390;2022-09-29T15:16:18;99084.03;;;18.65;49.59
32851;BME280;19202;48.992;8.390;2022-09-29T15:22:24;99074.44;;;18.42;50.43
32851;BME280;19202;48.992;8.390;2022-09-29T15:33:55;99079.59;;;18.24;51.39
32851;BME280;19202;48.992;8.390;2022-09-29T15:45:20;99087.44;;;17.96;49.88
32851;BME280;19202;48.992;8.390;2022-09-29T15:50:59;99093.69;;;17.85;52.29
32851;BME280;19202;48.992;8.390;2022-09-29T15:56:39;99094.88;;;17.71;52.68
32851;BME280;19202;48.992;8.390;2022-09-29T16:02:40;99100.09;;;17.52;52.58
32851;BME280;19202;48.992;8.390;2022-09-29T16:08:20;99114.91;;;17.45;53.24
32851;BME280;19202;48.992;8.390;2022-09-29T16:14:10;99124.28;;;17.40;53.29
32851;BME280;19202;48.992;8.390;2022-09-29T16:19:59;99140.75;;;17.24;54.50
32851;BME280;19202;48.992;8.390;2022-09-29T16:25:37;99142.56;;;17.13;55.07
32851;BME280;19202;48.992;8.390;2022-09-29T16:31:19;99154.63;;;17.07;55.19
32851;BME280;19202;48.992;8.390;2022-09-29T16:37:01;99163.00;;;17.03;56.05
32851;BME280;19202;48.992;8.390;2022-09-29T16:42:40;99171.91;;;16.92;57.38
32851;BME280;19202;48.992;8.390;2022-09-29T16:48:18;99175.56;;;16.80;57.35
32851;BME280;19202;48.992;8.390;2022-09-29T16:53:57;99181.38;;;16.63;59.69
32851;BME280;19202;48.992;8.390;2022-09-29T16:59:36;99204.16;;;16.10;62.85
32851;BME280;19202;48.992;8.390;2022-09-29T17:05:14;99215.47;;;15.79;65.48
32851;BME280;19202;48.992;8.390;2022-09-29T17:10:54;99223.97;;;15.60;65.59
32851;BME280;19202;48.992;8.390;2022-09-29T17:16:32;99238.44;;;15.45;66.69
32851;BME280;19202;48.992;8.390;2022-09-29T17:22:21;99233.38;;;15.17;68.46
32851;BME280;19202;48.992;8.390;2022-09-29T17:28:00;99238.69;;;15.17;67.62
32851;BME280;19202;48.992;8.390;2022-09-29T17:33:51;99250.00;;;15.08;67.10
32851;BME280;19202;48.992;8.390;2022-09-29T17:39:29;99257.94;;;14.84;69.02
32851;BME280;19202;48.992;8.390;2022-09-29T17:45:07;99247.69;;;14.66;69.85
32851;BME280;19202;48.992;8.390;2022-09-29T17:50:48;99259.63;;;14.48;70.93
32851;BME280;19202;48.992;8.390;2022-09-29T17:56:27;99271.13;;;14.48;70.10
32851;BME280;19202;48.992;8.390;2022-09-29T18:02:10;99278.78;;;14.40;71.62
32851;BME280;19202;48.992;8.390;2022-09-29T18:07:50;99285.47;;;14.46;71.31
32851;BME280;19202;48.992;8.390;2022-09-29T18:13:30;99286.47;;;14.45;71.18
32851;BME280;19202;48.992;8.390;2022-09-29T18:19:14;99274.94;;;14.44;71.06
32851;BME280;19202;48.992;8.390;2022-09-29T18:24:53;99276.44;;;14.48;70.45
32851;BME280;19202;48.992;8.390;2022-09-29T18:30:32;99281.13;;;14.57;70.12
32851;BME280;19202;48.992;8.390;2022-09-29T18:36:17;99297.94;;;14.58;70.40
32851;BME280;19202;48.992;8.390;2022-09-29T18:41:55;99287.31;;;14.58;70.32
32851;BME280;19202;48.992;8.390;2022-09-29T18:47:33;99292.63;;;14.58;70.21
32851;BME280;19202;48.992;8.390;2022-09-29T18:53:18;99302.41;;;14.57;70.62
32851;BME280;19202;48.992;8.390;2022-09-29T18:58:57;99299.88;;;14.56;70.54
32851;BME280;19202;48.992;8.390;2022-09-29T19:04:35;99301.59;;;14.57;70.71
32851;BME280;19202;48.992;8.390;2022-09-29T19:10:14;99311.38;;;14.56;70.94
32851;BME280;19202;48.992;8.390;2022-09-29T19:15:56;99317.75;;;14.54;71.16
32851;BME280;19202;48.992;8.390;2022-09-29T19:21:34;99321.81;;;14.47;71.64
32851;BME280;19202;48.992;8.390;2022-09-29T19:27:12;99333.91;;;14.38;72.20
32851;BME280;19202;48.992;8.390;2022-09-29T19:32:52;99339.75;;;14.30;72.93
32851;BME280;19202;48.992;8.390;2022-09-29T19:38:30;99342.56;;;14.27;73.24
32851;BME280;19202;48.992;8.390;2022-09-29T19:44:08;99337.47;;;14.24;72.95
32851;BME280;19202;48.992;8.390;2022-09-29T19:49:47;99335.97;;;14.20;73.42
32851;BME280;19202;48.992;8.390;2022-09-29T19:55:25;99345.53;;;14.23;72.97
32851;BME280;19202;48.992;8.390;2022-09-29T20:01:04;99345.75;;;14.20;73.20
32851;BME280;19202;48.992;8.390;2022-09-29T20:06:43;99357.72;;;14.13;73.64
32851;BME280;19202;48.992;8.390;2022-09-29T20:12:22;99354.06;;;14.01;74.02
32851;BME280;19202;48.992;8.390;2022-09-29T20:18:00;99362.91;;;14.02;73.39
32851;BME280;19202;48.992;8.390;2022-09-29T20:23:38;99368.22;;;14.02;73.46
32851;BME280;19202;48.992;8.390;2022-09-29T20:29:18;99375.34;;;14.01;73.26
32851;BME280;19202;48.992;8.390;2022-09-29T20:34:56;99367.59;;;13.98;73.88
32851;BME280;19202;48.992;8.390;2022-09-29T20:40:34;99366.09;;;13.94;73.83
32851;BME280;19202;48.992;8.390;2022-09-29T20:46:12;99368.06;;;13.91;73.73
32851;BME280;19202;48.992;8.390;2022-09-29T20:51:51;99373.69;;;13.86;73.88
32851;BME280;19202;48.992;8.390;2022-09-29T20:57:30;99381.09;;;13.81;73.92
32851;BME280;19202;48.992;8.390;2022-09-29T21:03:08;99380.44;;;13.78;74.16
32851;BME280;19202;48.992;8.390;2022-09-29T21:08:46;99401.06;;;13.74;74.46
32851;BME280;19202;48.992;8.390;2022-09-29T21:14:24;99404.88;;;13.70;74.27
32851;BME280;19202;48.992;8.390;2022-09-29T21:20:04;99414.75;;;13.68;74.67
32851;BME280;19202;48.992;8.390;2022-09-29T21:25:42;99420.25;;;13.65;74.71
32851;BME280;19202;48.992;8.390;2022-09-29T21:31:23;99424.25;;;13.44;77.85
32851;BME280;19202;48.992;8.390;2022-09-29T21:37:01;99422.72;;;13.40;77.05
32851;BME280;19202;48.992;8.390;2022-09-29T21:42:39;99428.44;;;13.48;76.08
32851;BME280;19202;48.992;8.390;2022-09-29T21:48:17;99428.22;;;13.51;75.98
32851;BME280;19202;48.992;8.390;2022-09-29T21:53:57;99439.81;;;13.50;76.44
32851;BME280;19202;48.992;8.390;2022-09-29T21:59:35;99454.03;;;13.49;76.44
32851;BME280;19202;48.992;8.390;2022-09-29T22:05:13;99463.63;;;13.51;76.79
32851;BME280;19202;48.992;8.390;2022-09-29T22:10:52;99467.13;;;13.38;78.35
32851;BME280;19202;48.992;8.390;2022-09-29T22:16:32;99462.75;;;13.37;78.27
32851;BME280;19202;48.992;8.390;2022-09-29T22:22:10;99469.03;;;13.36;77.75
32851;BME280;19202;48.992;8.390;2022-09-29T22:27:47;99478.03;;;13.33;77.87
32851;BME280;19202;48.992;8.390;2022-09-29T22:33:26;99489.31;;;13.23;79.02
32851;BME280;19202;48.992;8.390;2022-09-29T22:39:05;99485.97;;;13.19;79.00
32851;BME280;19202;48.992;8.390;2022-09-29T22:44:43;99491.03;;;13.24;78.43
32851;BME280;19202;48.992;8.390;2022-09-29T22:50:22;99493.47;;;13.27;78.43
32851;BME280;19202;48.992;8.390;2022-09-29T22:56:08;99490.66;;;13.30;78.62
32851;BME280;19202;48.992;8.390;2022-09-29T23:01:47;99490.47;;;13.33;78.01
32851;BME280;19202;48.992;8.390;2022-09-29T23:07:26;99488.78;;;13.32;78.47
32851;BME280;19202;48.992;8.390;2022-09-29T23:13:03;99495.78;;;13.33;77.84
32851;BME280;19202;48.992;8.390;2022-09-29T23:18:44;99501.09;;;13.33;78.14
32851;BME280;19202;48.992;8.390;2022-09-29T23:24:22;99505.75;;;13.29;78.09
32851;BME280;19202;48.992;8.390;2022-09-29T23:30:00;99503.94;;;13.30;78.25
32851;BME280;19202;48.992;8.390;2022-09-29T23:35:38;99508.41;;;13.29;78.11
32851;BME280;19202;48.992;8.390;2022-09-29T23:41:16;99506.59;;;13.30;78.17
32851;BME280;19202;48.992;8.390;2022-09-29T23:46:56;99499.66;;;13.27;78.29
32851;BME280;19202;48.992;8.390;2022-09-29T23:52:34;99502.31;;;13.27;78.47
32851;BME280;19202;48.992;8.390;2022-09-29T23:58:12;99505.91;;;13.26;78.25
